Time;durP1;ratioP1;P1;durP2;ratioP2;P2;SDS_P1;SDS_P2;PMS_P1;PMS_P2;Temp;Humidity;BMP_temperature;BMP_pressure;BME280_temperature;BME280_humidity;BME280_pressure;Samples;Min_cycle;Max_cycle;Signal;HPM_P1;HPM_P2
2021/12/17 00:00:45;;;;;;;43.75;39.22;;;4.20;92.50;;;;;;5024202;28;20023;-77
2021/12/17 00:03:18;;;;;;;44.40;39.83;;;4.10;92.50;;;;;;5018288;28;20038;-76
2021/12/17 00:08:12;;;;;;;45.20;40.45;;;4.20;92.50;;;;;;5016819;28;20030;-77
2021/12/17 00:10:39;;;;;;;47.15;42.25;;;4.20;92.50;;;;;;5016656;28;20033;-77
2021/12/17 00:13:05;;;;;;;45.40;40.47;;;4.20;92.50;;;;;;5028203;28;20018;-76
2021/12/17 00:15:31;;;;;;;42.97;38.47;;;4.20;92.50;;;;;;5017981;28;20370;-74
2021/12/17 00:18:10;;;;;;;46.05;41.28;;;4.20;92.50;;;;;;5016385;28;20053;-76
2021/12/17 00:51:14;;;;;;;43.67;39.20;;;3.90;92.50;;;;;;5023241;28;20318;-72
2021/12/17 00:53:29;;;;;;;40.95;36.75;;;3.90;92.40;;;;;;5030959;28;20010;-77
2021/12/17 00:55:55;;;;;;;45.20;37.88;;;3.90;92.30;;;;;;5017582;28;20035;-75
2021/12/17 00:58:21;;;;;;;57.05;41.65;;;3.80;92.20;;;;;;5024727;28;20034;-76
2021/12/17 01:00:47;;;;;;;49.95;40.25;;;3.90;92.10;;;;;;5018182;28;20102;-78
2021/12/17 01:03:13;;;;;;;45.28;39.60;;;3.90;92.10;;;;;;5009680;28;20086;-78
2021/12/17 01:05:39;;;;;;;44.63;39.80;;;3.80;92.10;;;;;;5015119;28;20046;-78
2021/12/17 01:08:06;;;;;;;47.38;40.85;;;3.90;92.20;;;;;;5019481;28;20014;-78
2021/12/17 01:10:39;;;;;;;43.70;38.90;;;3.90;92.20;;;;;;5014930;28;20081;-78
2021/12/17 01:13:07;;;;;;;47.90;41.63;;;3.80;92.20;;;;;;5053592;28;20359;-78
2021/12/17 01:15:35;;;;;;;58.47;42.85;;;3.80;92.20;;;;;;5022640;28;20102;-77
2021/12/17 01:18:07;;;;;;;52.55;42.88;;;3.80;92.20;;;;;;5015566;28;20030;-77
2021/12/17 01:20:53;;;;;;;48.40;41.90;;;3.70;92.30;;;;;;5019250;28;20022;-73
2021/12/17 01:37:16;;;;;;;48.00;42.33;;;3.70;92.40;;;;;;4983015;28;20027;-77
2021/12/17 01:42:23;;;;;;;48.03;42.90;;;3.70;92.30;;;;;;5014668;28;20066;-79
2021/12/17 01:44:49;;;;;;;49.97;44.00;;;3.70;92.30;;;;;;5018103;28;20094;-77
2021/12/17 01:47:15;;;;;;;46.15;41.13;;;3.70;92.30;;;;;;5017307;28;20082;-76
2021/12/17 02:00:32;;;;;;;47.37;41.10;;;3.70;92.20;;;;;;5016657;28;20014;-76
2021/12/17 02:03:00;;;;;;;41.28;36.97;;;3.60;92.10;;;;;;5009519;28;20809;-73
2021/12/17 02:05:26;;;;;;;42.53;38.10;;;3.60;92.10;;;;;;5012665;28;20044;-76
2021/12/17 02:07:55;;;;;;;42.40;38.03;;;3.50;91.90;;;;;;5024607;28;20034;-77
2021/12/17 02:29:12;;;;;;;64.90;37.67;;;3.60;92.60;;;;;;5031913;28;20081;-75
2021/12/17 02:31:37;;;;;;;40.17;34.10;;;3.60;92.80;;;;;;5018741;28;20026;-77
2021/12/17 02:34:21;;;;;;;49.17;35.67;;;3.60;92.80;;;;;;5023728;28;20057;-75
2021/12/17 02:36:48;;;;;;;37.28;33.35;;;3.70;92.90;;;;;;5017589;28;20057;-72
2021/12/17 02:47:27;;;;;;;72.13;36.47;;;3.70;93.00;;;;;;5014827;28;20108;-72
2021/12/17 02:49:52;;;;;;;49.58;32.08;;;3.60;92.60;;;;;;5019391;28;20042;-74
2021/12/17 02:52:24;;;;;;;65.95;37.30;;;3.30;92.70;;;;;;5013864;28;20018;-77
2021/12/17 02:54:50;;;;;;;38.65;33.95;;;3.20;92.80;;;;;;5014432;28;20038;-76
2021/12/17 02:57:15;;;;;;;36.10;32.25;;;3.20;93.00;;;;;;5024674;28;20109;-75
2021/12/17 02:59:41;;;;;;;40.28;34.78;;;3.30;93.10;;;;;;5027744;28;20034;-74
2021/12/17 03:02:08;;;;;;;40.05;33.55;;;3.40;93.10;;;;;;5015135;28;20057;-77
2021/12/17 03:04:37;;;;;;;36.17;32.22;;;3.40;93.20;;;;;;5022236;28;20037;-76
2021/12/17 03:07:03;;;;;;;35.95;32.03;;;3.40;93.20;;;;;;5012499;28;20035;-75
2021/12/17 03:10:03;;;;;;;36.28;32.38;;;3.50;93.30;;;;;;5017423;28;20045;-76
2021/12/17 03:12:20;;;;;;;36.42;32.58;;;3.50;93.30;;;;;;5006136;28;20038;-71
2021/12/17 03:14:57;;;;;;;35.80;32.15;;;3.50;93.20;;;;;;5034817;28;20195;-77
2021/12/17 03:25:38;;;;;;;34.97;31.25;;;3.50;93.10;;;;;;5022834;28;20157;-73
2021/12/17 03:28:04;;;;;;;56.03;37.05;;;3.40;93.10;;;;;;5013069;28;20034;-75
2021/12/17 03:30:30;;;;;;;49.45;37.72;;;3.40;93.00;;;;;;5020351;28;20057;-78
2021/12/17 03:32:56;;;;;;;35.83;32.15;;;3.30;93.00;;;;;;5015513;28;20017;-78
2021/12/17 03:35:21;;;;;;;37.92;33.92;;;3.40;93.10;;;;;;5016912;28;20136;-78
2021/12/17 03:37:47;;;;;;;38.65;34.60;;;3.40;93.20;;;;;;5019337;28;20057;-77
2021/12/17 03:40:16;;;;;;;34.20;30.65;;;3.40;93.20;;;;;;5015051;28;20034;-72
2021/12/17 03:42:47;;;;;;;48.25;32.95;;;3.40;93.20;;;;;;5015021;28;20061;-76
2021/12/17 03:45:13;;;;;;;33.80;30.20;;;3.40;93.20;;;;;;5025459;28;20042;-74
2021/12/17 03:47:39;;;;;;;33.83;30.25;;;3.40;93.20;;;;;;5017391;28;20037;-76
2021/12/17 03:50:05;;;;;;;34.85;31.25;;;3.40;93.30;;;;;;5025064;28;20018;-76
2021/12/17 03:52:31;;;;;;;32.78;29.08;;;3.40;93.30;;;;;;5011728;28;20094;-77
2021/12/17 03:54:56;;;;;;;34.08;30.45;;;3.40;93.30;;;;;;5016248;28;20018;-77
2021/12/17 03:57:22;;;;;;;48.13;31.27;;;3.40;93.20;;;;;;5008333;28;20034;-74
2021/12/17 03:59:48;;;;;;;36.30;31.02;;;3.40;93.20;;;;;;5013581;28;20035;-77
2021/12/17 04:02:14;;;;;;;37.72;30.35;;;3.40;93.30;;;;;;5010979;28;20029;-76
2021/12/17 04:04:40;;;;;;;39.08;31.98;;;3.40;93.30;;;;;;5013829;28;20223;-76
2021/12/17 04:07:06;;;;;;;35.22;31.52;;;3.40;93.20;;;;;;5017771;28;20223;-74
2021/12/17 04:09:32;;;;;;;33.72;30.23;;;3.40;93.30;;;;;;5019791;28;20022;-74
2021/12/17 04:12:00;;;;;;;70.18;34.80;;;3.40;93.00;;;;;;5011961;28;20019;-71
2021/12/17 04:14:34;;;;;;;34.08;30.48;;;3.20;92.80;;;;;;5013200;28;20042;-77
2021/12/17 04:17:04;;;;;;;46.03;34.92;;;3.10;92.80;;;;;;5012047;28;20105;-75
2021/12/17 04:19:30;;;;;;;39.70;34.28;;;3.20;92.70;;;;;;5010518;28;21102;-76
2021/12/17 04:21:56;;;;;;;39.45;33.70;;;3.10;92.90;;;;;;5023772;28;20018;-78
2021/12/17 04:24:21;;;;;;;41.60;32.20;;;3.20;92.90;;;;;;5018832;28;20010;-78
2021/12/17 04:26:47;;;;;;;45.85;30.27;;;3.20;93.00;;;;;;5011205;28;20078;-77
2021/12/17 04:29:13;;;;;;;32.25;28.70;;;3.20;93.00;;;;;;5015878;28;20033;-78
2021/12/17 04:31:39;;;;;;;32.70;29.30;;;3.20;92.90;;;;;;5011419;28;20050;-76
2021/12/17 04:34:05;;;;;;;41.38;30.50;;;3.30;93.00;;;;;;5017274;28;20020;-76
2021/12/17 04:36:34;;;;;;;35.50;28.17;;;3.30;93.00;;;;;;5016340;28;20050;-78
2021/12/17 04:39:00;;;;;;;30.67;27.52;;;3.20;93.00;;;;;;5015014;28;20042;-73
2021/12/17 04:42:16;;;;;;;43.70;28.90;;;3.30;93.00;;;;;;5022165;28;20100;-75
2021/12/17 04:57:34;;;;;;;77.82;36.08;;;3.20;93.70;;;;;;5029511;28;20281;-77
2021/12/17 05:00:26;;;;;;;62.83;35.25;;;3.20;93.90;;;;;;5018840;28;20042;-77
2021/12/17 05:02:55;;;;;;;39.55;30.85;;;3.20;94.10;;;;;;5019523;28;20072;-77
2021/12/17 05:05:29;;;;;;;41.97;32.45;;;3.30;94.20;;;;;;5014133;28;20041;-76
2021/12/17 05:08:01;;;;;;;98.90;38.53;;;3.40;94.20;;;;;;5015135;28;20027;-76
2021/12/17 05:10:50;;;;;;;42.50;33.03;;;3.40;94.10;;;;;;5010678;28;20038;-75
2021/12/17 05:19:02;;;;;;;59.15;34.53;;;3.40;94.30;;;;;;5004089;28;20029;-77
2021/12/17 05:21:27;;;;;;;107.22;38.05;;;3.40;94.30;;;;;;5010696;28;20030;-76
2021/12/17 05:23:53;;;;;;;72.75;33.15;;;3.40;94.40;;;;;;5015082;28;20042;-77
2021/12/17 05:26:21;;;;;;;85.35;33.85;;;3.50;94.50;;;;;;5014126;28;20018;-76
2021/12/17 05:28:48;;;;;;;35.13;28.85;;;3.60;94.40;;;;;;5016630;28;20038;-75
2021/12/17 05:31:16;;;;;;;31.40;26.92;;;3.60;94.50;;;;;;5007802;28;20033;-76
2021/12/17 05:33:42;;;;;;;89.75;32.67;;;3.60;94.50;;;;;;5013385;28;20247;-75
2021/12/17 05:36:08;;;;;;;80.30;33.10;;;3.70;94.50;;;;;;5032273;28;20026;-72
2021/12/17 05:38:36;;;;;;;99.82;37.40;;;3.60;94.50;;;;;;5012346;28;20023;-76
2021/12/17 05:41:02;;;;;;;62.88;32.63;;;3.60;94.50;;;;;;5010659;28;20042;-74
2021/12/17 05:43:29;;;;;;;61.40;31.45;;;3.60;94.70;;;;;;5014055;28;20062;-77
2021/12/17 05:48:25;;;;;;;50.85;31.20;;;3.60;94.80;;;;;;5005054;28;20074;-76
2021/12/17 05:50:55;;;;;;;38.60;30.60;;;3.60;94.80;;;;;;5007406;28;20038;-72
2021/12/17 05:53:21;;;;;;;89.30;37.88;;;3.70;94.90;;;;;;5009350;28;20053;-76
2021/12/17 05:55:47;;;;;;;42.72;30.50;;;3.60;94.90;;;;;;5016152;28;20026;-76
2021/12/17 05:58:13;;;;;;;84.40;36.35;;;3.70;94.90;;;;;;5046387;28;20022;-75
2021/12/17 06:00:41;;;;;;;49.85;34.78;;;3.70;94.90;;;;;;5012394;28;20046;-75
2021/12/17 06:03:07;;;;;;;55.05;33.65;;;3.70;95.00;;;;;;5027872;28;20014;-75
2021/12/17 06:05:33;;;;;;;72.28;36.42;;;3.80;95.00;;;;;;5020463;28;20091;-76
2021/12/17 06:07:59;;;;;;;38.08;30.65;;;3.80;95.00;;;;;;5012982;28;20026;-72
2021/12/17 06:10:26;;;;;;;57.38;31.75;;;3.90;95.10;;;;;;5012203;28;20058;-75
2021/12/17 06:12:51;;;;;;;51.67;31.60;;;3.90;95.10;;;;;;5023587;28;20085;-77
2021/12/17 06:15:19;;;;;;;48.08;29.00;;;3.90;95.10;;;;;;5024270;28;20038;-77
2021/12/17 06:17:45;;;;;;;73.55;37.13;;;3.90;95.20;;;;;;5028954;28;20142;-71
2021/12/17 06:20:13;;;;;;;59.10;32.15;;;4.00;95.30;;;;;;5028326;28;20042;-73
2021/12/17 06:22:39;;;;;;;66.57;28.65;;;4.10;95.40;;;;;;5022812;28;20060;-75
2021/12/17 06:25:07;;;;;;;50.25;25.98;;;4.10;95.40;;;;;;5014093;28;20041;-74
2021/12/17 06:27:33;;;;;;;57.00;27.77;;;4.10;95.50;;;;;;5010295;28;20035;-75
2021/12/17 06:29:59;;;;;;;77.30;29.88;;;4.20;95.50;;;;;;5014840;28;20064;-74
2021/12/17 06:32:25;;;;;;;58.90;27.42;;;4.30;95.60;;;;;;5003345;28;20022;-76
2021/12/17 06:34:52;;;;;;;97.38;29.60;;;4.40;95.70;;;;;;5004788;28;20049;-75
2021/12/17 06:37:18;;;;;;;74.55;27.95;;;4.40;95.70;;;;;;5010990;28;20034;-71
2021/12/17 06:39:45;;;;;;;101.75;29.08;;;4.50;95.70;;;;;;5011868;28;20039;-75
2021/12/17 06:42:12;;;;;;;84.75;27.23;;;4.50;95.80;;;;;;5014423;28;20050;-75
2021/12/17 06:44:39;;;;;;;94.93;28.20;;;4.60;95.90;;;;;;5013475;28;20030;-75
2021/12/17 06:49:56;;;;;;;102.80;28.63;;;4.70;95.90;;;;;;5008710;28;20112;-75
2021/12/17 07:10:50;;;;;;;;;;;4.90;96.10;;;;;;5010878;28;20022;-75
2021/12/17 07:24:46;;;;;;;146.88;33.40;;;5.00;96.20;;;;;;5005910;28;20031;-75
2021/12/17 07:35:12;;;;;;;163.25;35.25;;;5.00;96.30;;;;;;5007656;28;20036;-73
2021/12/17 07:39:58;;;;;;;105.00;32.17;;;5.10;96.30;;;;;;5005917;28;20027;-76
2021/12/17 07:42:25;;;;;;;142.73;33.08;;;5.10;96.40;;;;;;5010266;28;20513;-71
2021/12/17 07:44:50;;;;;;;212.80;39.35;;;5.10;96.40;;;;;;5010484;28;20018;-73
2021/12/17 07:47:16;;;;;;;117.78;34.40;;;5.10;96.40;;;;;;5025004;28;20037;-73
2021/12/17 07:49:41;;;;;;;96.82;34.10;;;5.10;96.40;;;;;;5001860;28;20043;-73
2021/12/17 07:52:07;;;;;;;234.30;43.05;;;5.20;96.40;;;;;;5016457;28;20427;-73
2021/12/17 07:54:33;;;;;;;117.82;33.92;;;5.20;96.40;;;;;;5019623;28;20026;-69
2021/12/17 07:56:58;;;;;;;230.30;44.85;;;5.20;96.40;;;;;;5018229;28;20050;-70
2021/12/17 07:59:25;;;;;;;190.27;40.50;;;5.20;96.40;;;;;;5027359;28;20026;-72
2021/12/17 08:01:52;;;;;;;82.95;34.03;;;5.20;96.40;;;;;;5018228;28;20022;-72
2021/12/17 08:04:18;;;;;;;152.30;42.78;;;5.30;96.40;;;;;;5015142;28;20014;-73
2021/12/17 08:06:45;;;;;;;175.00;38.72;;;5.30;96.40;;;;;;5015874;28;20034;-72
2021/12/17 08:09:12;;;;;;;194.98;41.20;;;5.30;96.40;;;;;;5008705;28;20112;-72
2021/12/17 08:11:40;;;;;;;116.45;39.20;;;5.40;96.50;;;;;;5012945;28;20291;-72
2021/12/17 08:14:12;;;;;;;146.43;45.28;;;5.40;96.50;;;;;;5029262;28;20042;-71
2021/12/17 08:16:51;;;;;;;235.13;48.35;;;5.50;96.50;;;;;;5011021;28;20062;-68
2021/12/17 08:29:55;;;;;;;258.58;52.30;;;5.50;96.50;;;;;;5009228;28;20025;-73
2021/12/17 08:32:22;;;;;;;264.08;54.83;;;5.50;96.50;;;;;;5021174;28;20033;-73
2021/12/17 08:34:47;;;;;;;285.63;53.97;;;5.50;96.50;;;;;;5018486;28;20126;-72
2021/12/17 08:37:14;;;;;;;261.17;54.17;;;5.50;96.50;;;;;;5017106;28;20035;-72
2021/12/17 08:39:39;;;;;;;145.05;49.05;;;5.60;96.50;;;;;;5017016;28;20029;-72
2021/12/17 08:42:08;;;;;;;286.90;55.45;;;5.60;96.50;;;;;;5021738;28;20038;-70
2021/12/17 08:44:36;;;;;;;211.32;51.58;;;5.60;96.50;;;;;;5014117;28;20038;-73
2021/12/17 08:47:02;;;;;;;226.07;52.25;;;5.60;96.60;;;;;;5020831;28;20037;-70
2021/12/17 08:49:29;;;;;;;213.52;51.90;;;5.60;96.50;;;;;;5024448;28;20041;-72
2021/12/17 08:51:54;;;;;;;193.38;49.00;;;5.70;96.60;;;;;;5013753;28;20018;-72
2021/12/17 08:54:20;;;;;;;229.90;51.92;;;5.70;96.50;;;;;;5020273;28;20038;-73
2021/12/17 08:56:49;;;;;;;238.57;53.45;;;5.80;96.50;;;;;;5017963;28;20042;-67
2021/12/17 08:59:16;;;;;;;213.55;52.88;;;5.70;96.50;;;;;;5023464;28;20096;-72
2021/12/17 09:01:43;;;;;;;170.70;52.10;;;5.80;96.50;;;;;;5037905;28;20031;-72
2021/12/17 09:04:09;;;;;;;198.45;54.60;;;5.80;96.50;;;;;;5027800;28;20050;-69
2021/12/17 09:06:34;;;;;;;237.27;60.58;;;5.90;96.50;;;;;;5015753;28;20054;-70
2021/12/17 09:09:00;;;;;;;126.97;43.40;;;5.90;96.50;;;;;;5032325;28;20022;-72
2021/12/17 09:11:28;;;;;;;197.63;48.22;;;5.90;96.60;;;;;;5022058;28;20018;-72
2021/12/17 09:13:56;;;;;;;168.00;43.03;;;6.00;96.50;;;;;;5024360;28;20058;-73
2021/12/17 09:16:22;;;;;;;167.25;44.72;;;6.00;96.50;;;;;;5020453;28;20042;-72
2021/12/17 09:18:52;;;;;;;159.15;41.63;;;6.00;96.50;;;;;;5023701;28;20034;-72
2021/12/17 09:21:18;;;;;;;114.95;38.28;;;5.90;96.50;;;;;;5025829;28;20058;-71
2021/12/17 09:23:44;;;;;;;140.02;40.10;;;6.00;96.50;;;;;;5029960;28;20026;-70
2021/12/17 09:26:11;;;;;;;127.63;38.25;;;6.00;96.50;;;;;;5034862;28;20042;-72
2021/12/17 09:28:40;;;;;;;111.68;41.78;;;6.10;96.50;;;;;;5019708;28;20022;-72
2021/12/17 09:31:11;;;;;;;92.72;35.50;;;6.10;96.50;;;;;;5025312;28;20092;-71
2021/12/17 09:33:38;;;;;;;127.90;38.97;;;6.10;96.50;;;;;;5013698;28;20094;-71
2021/12/17 09:36:04;;;;;;;137.38;37.05;;;6.10;96.50;;;;;;5016817;28;20017;-73
2021/12/17 09:38:30;;;;;;;117.32;38.42;;;6.10;96.50;;;;;;5026366;28;20029;-71
2021/12/17 09:40:56;;;;;;;97.63;37.30;;;6.20;96.40;;;;;;5018838;28;20105;-73
2021/12/17 09:43:22;;;;;;;137.00;36.97;;;6.20;96.50;;;;;;5013058;28;20015;-71
2021/12/17 09:45:47;;;;;;;140.82;42.05;;;6.20;96.50;;;;;;5021261;28;20046;-72
2021/12/17 09:48:14;;;;;;;136.75;37.60;;;6.30;96.40;;;;;;5019729;28;20090;-73
2021/12/17 09:50:40;;;;;;;113.60;34.95;;;6.30;96.50;;;;;;5033493;28;20022;-73
2021/12/17 09:53:07;;;;;;;145.88;40.33;;;6.30;96.40;;;;;;5019923;28;20050;-73
2021/12/17 09:55:33;;;;;;;128.43;38.72;;;6.30;96.40;;;;;;5021036;28;20110;-69
2021/12/17 09:57:58;;;;;;;129.45;37.70;;;6.40;96.50;;;;;;5014371;28;20054;-73
2021/12/17 10:00:26;;;;;;;111.05;35.88;;;6.40;96.50;;;;;;5023133;28;20021;-73
2021/12/17 10:02:52;;;;;;;128.43;40.17;;;6.40;96.50;;;;;;5014688;28;20086;-72
2021/12/17 10:05:23;;;;;;;138.13;40.45;;;6.40;96.40;;;;;;5015700;28;20023;-69
2021/12/17 10:08:06;;;;;;;139.80;39.92;;;6.40;96.40;;;;;;5015871;28;20037;-75
2021/12/17 10:11:01;;;;;;;120.35;38.17;;;6.50;96.40;;;;;;5023838;28;20318;-72
2021/12/17 10:13:31;;;;;;;117.18;39.08;;;6.50;96.40;;;;;;5014670;28;20145;-71
2021/12/17 10:16:06;;;;;;;134.88;40.47;;;6.60;96.40;;;;;;5014523;28;20044;-72
2021/12/17 10:18:41;;;;;;;132.57;41.47;;;6.60;96.40;;;;;;5028482;28;20057;-68
2021/12/17 10:21:08;;;;;;;131.23;40.42;;;6.70;96.40;;;;;;5013244;28;20048;-69
2021/12/17 10:23:35;;;;;;;130.73;40.88;;;6.70;96.40;;;;;;5012541;28;20037;-72
2021/12/17 10:26:03;;;;;;;134.93;40.33;;;6.80;96.40;;;;;;5007543;28;20432;-71
2021/12/17 10:28:30;;;;;;;132.80;39.95;;;6.70;96.30;;;;;;5009561;28;20038;-73
2021/12/17 10:30:57;;;;;;;127.18;40.92;;;6.80;96.30;;;;;;5012652;28;20026;-73
2021/12/17 10:33:25;;;;;;;115.05;37.38;;;6.80;96.30;;;;;;5010403;28;20107;-72
2021/12/17 10:35:53;;;;;;;112.25;40.03;;;6.90;96.40;;;;;;5017034;28;20015;-72
2021/12/17 10:38:23;;;;;;;113.93;39.75;;;6.90;96.30;;;;;;5011006;28;20034;-73
2021/12/17 10:41:06;;;;;;;126.32;41.72;;;7.00;96.30;;;;;;5006630;28;20026;-72
2021/12/17 10:43:39;;;;;;;120.50;41.67;;;6.90;96.30;;;;;;5012527;28;20022;-72
2021/12/17 10:46:22;;;;;;;127.63;41.05;;;6.90;96.20;;;;;;5020705;28;20032;-71
2021/12/17 10:48:53;;;;;;;124.28;42.28;;;7.00;96.20;;;;;;5017183;28;20042;-74
2021/12/17 10:54:10;;;;;;;130.30;40.78;;;7.10;96.20;;;;;;5018648;28;20022;-72
2021/12/17 10:56:40;;;;;;;135.02;42.90;;;7.10;96.20;;;;;;5020643;28;20094;-73
2021/12/17 10:59:15;;;;;;;140.77;45.33;;;7.10;96.20;;;;;;5018927;28;20049;-68
2021/12/17 11:01:47;;;;;;;124.15;42.85;;;7.10;96.20;;;;;;5026169;28;20041;-72
2021/12/17 11:04:21;;;;;;;127.53;45.70;;;7.20;96.20;;;;;;5013988;28;20038;-70
2021/12/17 11:06:50;;;;;;;115.20;43.17;;;7.20;96.10;;;;;;5010958;28;20030;-68
2021/12/17 11:09:40;;;;;;;123.60;43.85;;;7.20;96.10;;;;;;5019344;28;20326;-74
2021/12/17 11:12:17;;;;;;;123.22;42.45;;;7.30;96.10;;;;;;5016863;28;20045;-72
2021/12/17 11:14:45;;;;;;;111.45;42.25;;;7.40;96.10;;;;;;5028310;28;20054;-73
2021/12/17 11:17:15;;;;;;;105.05;43.70;;;7.40;96.00;;;;;;5013404;28;20134;-75
2021/12/17 11:19:42;;;;;;;117.88;43.28;;;7.40;96.00;;;;;;5006845;28;20037;-75
2021/12/17 11:22:08;;;;;;;117.47;41.58;;;7.50;96.00;;;;;;5006577;28;20094;-74
2021/12/17 11:24:37;;;;;;;102.97;41.10;;;7.40;95.90;;;;;;5005638;28;20035;-76
2021/12/17 11:27:05;;;;;;;118.75;43.60;;;7.50;96.00;;;;;;5002114;28;20030;-74
2021/12/17 11:29:32;;;;;;;104.10;41.95;;;7.50;95.90;;;;;;5004322;28;20129;-73
2021/12/17 11:32:03;;;;;;;99.47;42.33;;;7.60;95.90;;;;;;5005497;28;20036;-73
2021/12/17 11:34:32;;;;;;;107.72;43.15;;;7.60;95.90;;;;;;5037131;28;20027;-74
2021/12/17 11:37:01;;;;;;;108.07;41.95;;;7.60;95.80;;;;;;5005201;28;20042;-73
2021/12/17 11:39:32;;;;;;;108.90;42.05;;;7.60;95.80;;;;;;5004454;28;20030;-72
2021/12/17 11:42:16;;;;;;;115.57;43.40;;;7.70;95.80;;;;;;5005946;28;20633;-72
2021/12/17 11:44:52;;;;;;;99.40;44.22;;;7.70;95.80;;;;;;5004819;28;20046;-72
2021/12/17 11:47:19;;;;;;;108.05;46.22;;;7.60;95.60;;;;;;5034903;28;20022;-73
2021/12/17 11:49:49;;;;;;;108.72;46.10;;;7.60;95.60;;;;;;5004089;28;20029;-72
2021/12/17 11:52:48;;;;;;;99.40;45.67;;;7.60;95.60;;;;;;5005853;28;20082;-72
2021/12/17 11:55:20;;;;;;;102.72;45.22;;;7.60;95.50;;;;;;5007928;28;20026;-74
2021/12/17 11:57:47;;;;;;;105.05;45.28;;;7.70;95.50;;;;;;5005005;28;20037;-71
2021/12/17 12:00:21;;;;;;;96.30;44.15;;;7.70;95.50;;;;;;5004211;28;20038;-73
2021/12/17 12:02:53;;;;;;;102.97;48.70;;;7.70;95.50;;;;;;5002482;28;20019;-72
2021/12/17 12:05:43;;;;;;;107.15;45.72;;;7.70;95.50;;;;;;5004348;28;20309;-73
2021/12/17 12:08:23;;;;;;;103.75;47.75;;;7.80;95.50;;;;;;5000252;28;20034;-74
2021/12/17 12:11:07;;;;;;;110.05;50.35;;;7.80;95.40;;;;;;5001147;28;20034;-73
2021/12/17 12:13:47;;;;;;;97.63;48.63;;;7.70;95.40;;;;;;5002405;28;20033;-72
2021/12/17 12:16:19;;;;;;;109.28;50.65;;;7.80;95.40;;;;;;5000415;28;20040;-69
2021/12/17 12:19:10;;;;;;;103.35;51.72;;;7.80;95.40;;;;;;5003380;28;20023;-72
2021/12/17 12:21:39;;;;;;;100.10;53.17;;;7.80;95.40;;;;;;5004580;28;20036;-72
2021/12/17 12:24:14;;;;;;;110.68;55.13;;;7.70;95.30;;;;;;5004610;28;20026;-73
2021/12/17 12:26:45;;;;;;;94.32;52.35;;;7.70;95.30;;;;;;5000209;28;20073;-72
2021/12/17 12:29:17;;;;;;;105.03;54.17;;;7.80;95.40;;;;;;5000658;28;20255;-72
2021/12/17 12:31:49;;;;;;;95.72;50.05;;;7.80;95.40;;;;;;5001151;28;20058;-72
2021/12/17 12:34:29;;;;;;;82.85;45.47;;;7.80;95.30;;;;;;5020909;28;20102;-70
2021/12/17 12:37:07;;;;;;;86.22;45.13;;;7.70;95.10;;;;;;5022673;28;20030;-73
2021/12/17 12:39:38;;;;;;;89.93;47.58;;;7.70;95.00;;;;;;5011065;28;20042;-71
2021/12/17 12:42:09;;;;;;;89.95;46.28;;;7.60;95.10;;;;;;5012297;28;20027;-72
2021/12/17 12:44:44;;;;;;;93.63;51.92;;;7.60;95.10;;;;;;5017463;28;20026;-73
2021/12/17 12:47:29;;;;;;;92.38;48.55;;;7.60;95.10;;;;;;5004780;28;20045;-68
2021/12/17 12:50:04;;;;;;;96.38;48.80;;;7.60;95.10;;;;;;5022380;28;20039;-73
2021/12/17 12:52:45;;;;;;;87.70;47.63;;;7.70;95.00;;;;;;5015725;28;20023;-74
2021/12/17 12:55:33;;;;;;;83.07;43.72;;;7.70;95.00;;;;;;5012947;28;20097;-72
2021/12/17 12:57:58;;;;;;;92.10;44.83;;;7.70;95.00;;;;;;5017473;28;20029;-74
2021/12/17 13:00:28;;;;;;;92.03;44.72;;;7.70;95.00;;;;;;5013880;28;20061;-74
2021/12/17 13:03:22;;;;;;;96.35;43.38;;;7.80;95.00;;;;;;5021313;28;20202;-74
2021/12/17 13:05:49;;;;;;;85.95;42.35;;;7.70;94.90;;;;;;5007762;28;20030;-74
2021/12/17 13:08:17;;;;;;;89.80;43.38;;;7.60;94.80;;;;;;5021827;28;20042;-73
2021/12/17 13:10:59;;;;;;;81.65;39.40;;;7.70;94.80;;;;;;5012634;28;20038;-74
2021/12/17 13:13:35;;;;;;;92.07;41.53;;;7.70;94.90;;;;;;5011527;28;20014;-73
2021/12/17 13:16:16;;;;;;;100.10;44.40;;;7.70;94.70;;;;;;5005198;28;20022;-71
2021/12/17 13:24:05;;;;;;;99.30;45.75;;;7.60;94.90;;;;;;5015033;28;20033;-74
2021/12/17 13:26:31;;;;;;;105.55;44.17;;;7.60;94.90;;;;;;5014355;28;20022;-74
2021/12/17 13:29:11;;;;;;;112.68;45.17;;;7.70;95.00;;;;;;5018116;28;20034;-75
2021/12/17 13:31:38;;;;;;;112.32;45.13;;;7.70;94.90;;;;;;5021523;28;20046;-73
2021/12/17 13:34:10;;;;;;;105.75;43.03;;;7.70;95.00;;;;;;5017560;28;20019;-70
2021/12/17 13:36:36;;;;;;;98.90;42.85;;;7.70;94.90;;;;;;5016655;28;20045;-74
2021/12/17 13:39:05;;;;;;;98.25;42.65;;;7.60;94.80;;;;;;5015833;28;20025;-69
2021/12/17 13:41:49;;;;;;;96.78;42.70;;;7.70;94.70;;;;;;5023903;28;20472;-75
2021/12/17 13:44:24;;;;;;;106.32;44.70;;;7.60;94.70;;;;;;5024181;28;20048;-74
2021/12/17 13:46:50;;;;;;;108.53;44.22;;;7.50;94.80;;;;;;5015458;28;20030;-76
2021/12/17 13:49:16;;;;;;;110.28;45.53;;;7.50;94.80;;;;;;5014837;28;20023;-70
2021/12/17 13:51:42;;;;;;;118.28;46.30;;;7.50;94.90;;;;;;5011678;28;20030;-72
2021/12/17 13:54:08;;;;;;;115.07;45.60;;;7.50;95.00;;;;;;5012351;28;20031;-75
2021/12/17 13:56:34;;;;;;;117.32;45.97;;;7.50;94.90;;;;;;5012236;28;20030;-74
2021/12/17 13:59:01;;;;;;;118.85;49.08;;;7.60;95.00;;;;;;5013882;28;20038;-74
2021/12/17 14:01:26;;;;;;;128.05;48.33;;;7.50;95.00;;;;;;5018671;28;20078;-73
2021/12/17 14:03:52;;;;;;;120.63;46.88;;;7.50;95.00;;;;;;5023544;28;20038;-74
2021/12/17 14:06:24;;;;;;;121.38;44.50;;;7.60;95.10;;;;;;5015016;28;20018;-75
2021/12/17 14:08:52;;;;;;;123.95;47.45;;;7.50;95.10;;;;;;5021408;28;20125;-72
2021/12/17 14:11:29;;;;;;;119.65;47.17;;;7.50;95.10;;;;;;5018249;28;20018;-74
2021/12/17 14:13:55;;;;;;;124.50;47.65;;;7.50;95.10;;;;;;5017833;28;20052;-73
2021/12/17 14:16:33;;;;;;;121.78;47.78;;;7.50;95.20;;;;;;5017318;28;20074;-72
2021/12/17 14:19:01;;;;;;;122.22;46.88;;;7.60;95.20;;;;;;5023889;28;20046;-75
2021/12/17 14:21:28;;;;;;;112.55;43.47;;;7.60;95.20;;;;;;5003366;28;20374;-69
2021/12/17 14:23:54;;;;;;;112.88;43.67;;;7.50;95.10;;;;;;5009054;28;20018;-73
2021/12/17 14:26:30;;;;;;;112.75;44.30;;;7.60;95.20;;;;;;5009610;28;20069;-74
2021/12/17 14:29:08;;;;;;;105.25;43.17;;;7.60;95.10;;;;;;5014040;28;20022;-70
2021/12/17 14:31:33;;;;;;;103.55;43.05;;;7.60;95.10;;;;;;5010105;28;20074;-75
2021/12/17 14:33:59;;;;;;;102.88;42.42;;;7.60;95.10;;;;;;5016397;28;20037;-74
2021/12/17 14:36:31;;;;;;;115.80;45.13;;;7.60;95.10;;;;;;5008719;28;20045;-76
2021/12/17 14:39:06;;;;;;;116.35;45.92;;;7.70;95.10;;;;;;5014893;28;20022;-73
2021/12/17 14:41:47;;;;;;;109.97;46.03;;;7.60;95.00;;;;;;5042920;28;20022;-75
2021/12/17 14:47:12;;;;;;;107.25;45.67;;;7.70;95.00;;;;;;5017010;28;20046;-74
2021/12/17 15:03:28;;;;;;;88.95;40.78;;;7.70;95.00;;;;;;5004036;28;20087;-75
2021/12/17 15:05:57;;;;;;;88.47;41.78;;;7.70;94.80;;;;;;5007072;28;20022;-75
2021/12/17 15:08:24;;;;;;;95.10;41.95;;;7.60;94.80;;;;;;5011245;28;20038;-75
2021/12/17 15:10:49;;;;;;;91.72;42.42;;;7.60;94.90;;;;;;5019382;28;20034;-74
2021/12/17 15:13:15;;;;;;;94.03;43.08;;;7.70;94.90;;;;;;5013238;28;20029;-74
2021/12/17 15:15:41;;;;;;;97.80;42.90;;;7.70;94.90;;;;;;5021345;28;20026;-69
2021/12/17 15:18:16;;;;;;;94.40;43.25;;;7.60;94.90;;;;;;5012001;28;20130;-73
2021/12/17 15:20:56;;;;;;;97.90;45.38;;;7.60;94.90;;;;;;5010209;28;20018;-75
2021/12/17 15:23:22;;;;;;;94.80;43.20;;;7.60;95.00;;;;;;5018435;28;20306;-75
2021/12/17 15:25:50;;;;;;;94.60;45.20;;;7.60;95.00;;;;;;5017259;28;20052;-74
2021/12/17 15:28:20;;;;;;;95.82;43.90;;;7.60;95.00;;;;;;5011557;28;20041;-74
2021/12/17 15:30:49;;;;;;;99.90;43.65;;;7.60;95.10;;;;;;5011541;28;20030;-75
2021/12/17 15:33:16;;;;;;;90.07;41.63;;;7.70;95.10;;;;;;5006700;28;20106;-76
2021/12/17 15:35:43;;;;;;;95.18;42.60;;;7.70;95.10;;;;;;5009920;28;20038;-73
2021/12/17 15:38:09;;;;;;;97.95;43.65;;;7.70;95.20;;;;;;5007204;28;20038;-73
2021/12/17 15:40:40;;;;;;;100.18;44.63;;;7.60;95.20;;;;;;5007038;28;20046;-74
2021/12/17 15:43:06;;;;;;;100.25;44.00;;;7.70;95.10;;;;;;5014176;28;20019;-73
2021/12/17 15:45:36;;;;;;;98.43;43.70;;;7.60;95.10;;;;;;5016290;28;20034;-74
2021/12/17 15:48:01;;;;;;;105.38;43.88;;;7.70;95.20;;;;;;5006741;28;20018;-73
2021/12/17 15:50:27;;;;;;;91.88;43.15;;;7.70;95.20;;;;;;5016207;28;20054;-76
2021/12/17 15:52:53;;;;;;;97.13;43.20;;;7.70;95.20;;;;;;5010132;28;20040;-73
2021/12/17 15:55:22;;;;;;;97.53;43.13;;;7.70;95.20;;;;;;5015043;28;20031;-74
2021/12/17 15:57:48;;;;;;;102.03;41.15;;;7.70;95.30;;;;;;5018518;28;20045;-74
2021/12/17 16:00:17;;;;;;;96.05;41.20;;;7.70;95.20;;;;;;5012123;28;20033;-74